Hillsboro, NH (03244)

11:33 PM EDT on July 07, 2015 (GMT -0400)
Gould Pond | | Change Station
CLOSE
Current Station
Personal Weather Station
Location: Hillsborough, NH
Elevation: 800 ft
Nearby Weather Stations

Elev 800 ft 43.16 °N, 71.90 °W | Updated 9 seconds ago

Mostly Cloudy
Mostly Cloudy
68.9 °F
Feels Like 68.9 °F
N
0.0
Wind Variable Wind from WSW
Gusts 0.0 mph

Today
High -- | Low -- °F
--% Chance of Precip.
Yesterday
High -- | Low -- °F
Precip. -- in
5:15 AM 8:29 PM
Waning Gibbous, 58% visible
Pressure 29.96 in
Visibility 10.0 miles
Clouds Overcast 700 ft
Dew Point 67 °F
Humidity 93%
Rainfall 0.22 in
Snow Depth Not available.
UV 0 out of 12
Pollen 1.60 out of 12
Air Quality Not available.
Flu Activity Not available.
METAR KAFN 080252Z AUTO 23005KT 10SM OVC007 22/21 A2996 RMK AO2 CIG 005V011 SLP144 60001 T02170206 57007

More Conditions Fewer Conditions

Pressure 29.96 in
Visibility 10.0 miles
Clouds Overcast 700 ft
Dew Point 67 °F
Humidity 93%
Rainfall 0.22 in
Snow Depth Not available.
UV 0 out of 12
Pollen 1.60 out of 12
Air Quality Not available.
Flu Activity Not available.
METAR KAFN 080252Z AUTO 23005KT 10SM OVC007 22/21 A2996 RMK AO2 CIG 005V011 SLP144 60001 T02170206 57007

More Conditions Fewer Conditions

10-Day Weather Forecast

×

Almanac

Astronomy

Jul. 07, 2015 Rise Set
Actual Time
Civil Twilight
Nautical Twilight
Astronomical Twilight
Moon
Length of Visible Light
Length of Day
Tomorrow will be .
, % of the Moon is Illuminated

Today's Extremes

State Highs State Lows

Community

WunderPhotos

Upload Photos

1,836,041 photos uploaded!

WunderBlogs® & News

Nearby

Air Quality

  Air Quality AQ Index Pollutant
Not available.

Snow Depth

Station Depth Elevation

Earthquake Activity

City Distance Mag. Time & Date
Minimum magnitude displayed is 2.5.

Coastal Water Temperatures

Place Temperature

Stations

Nearby Weather Stations

Station Location Temp. Windchill Dew Point Humidity Wind Precip. Elev Updated Type